Flight Track Log - Related Links

Times and Time Zones

All times are in EDT time to prevent confusion due to time zone crossing. See the N125GH flight status page for this flight to view local times or setup timezone preferences in your user account.

Time Position Orientation Groundspeed Altitude Reporting Facility
EDT Latitude Longitude Course Direction KTS MPH feet Rate Location/Type
Mon 10:19:00 AM 18.3955 -64.8426 299° West  Level Estimated
Mon 10:19:15 AM 17.2000 -62.6667 298° West 280 322 10,000  Level San Juan Center
Mon 10:20:00 AM 18.4519 -64.9551 298° West  Level Estimated
Mon 10:20:15 AM 17.2167 -62.7667 280° West 350 403 11,900  Level San Juan Center
Mon 10:21:00 AM 18.5083 -65.0677 298° West  Level Estimated
Mon 10:21:16 AM 17.2667 -62.8667 298° West 380 437 14,000  Level San Juan Center
Mon 10:22:00 AM 18.5646 -65.1804 298° West  Level Estimated
Mon 10:23:00 AM 18.6208 -65.2931 298° West  Level Estimated
Mon 10:23:16 AM 17.3667 -63.0667 298° West 390 449 14,000  Level San Juan Center
Mon 10:24:00 AM 18.6769 -65.4060 298° West  Level Estimated
Mon 10:24:16 AM 17.3833 -63.1833 279° West 390 449 16,100  Level San Juan Center
Mon 10:25:16 AM 17.4000 -63.3000 279° West 400 460 18,600 2,500 Climbing San Juan Center
Mon 10:26:16 AM 17.4333 -63.4167 287° West 420 483 21,100 2,400 Climbing San Juan Center
Mon 10:27:16 AM 17.4833 -63.5333 294° West 440 506 23,400 2,430 Climbing San Juan Center
Mon 10:28:17 AM 17.5500 -63.6500 301° West 450 518 26,000 2,380 Climbing San Juan Center
Mon 10:29:17 AM 17.6000 -63.7667 294° West 460 529 28,200 2,100 Climbing San Juan Center
Mon 10:30:17 AM 17.6667 -63.8833 301° West 470 541 30,200 1,850 Climbing San Juan Center
Mon 10:31:17 AM 17.7167 -64.0000 294° West 480 552 31,900 1,900 Climbing San Juan Center
Mon 10:32:17 AM 17.7833 -64.1333 298° West 480 552 34,000 2,250 Climbing San Juan Center
Mon 10:33:17 AM 17.8500 -64.2667 298° West 480 552 36,400 2,400 Climbing San Juan Center
Mon 10:34:17 AM 17.9167 -64.3833 301° West 460 529 38,800 2,231 Climbing San Juan Center
Mon 10:35:18 AM 17.9667 -64.4833 298° West 440 506 40,900 1,736 Climbing San Juan Center
Mon 10:36:18 AM 18.0167 -64.6000 294° West 430 495 42,300 1,050 Climbing San Juan Center
Mon 10:37:18 AM 18.0667 -64.7167 294° West 430 495 43,000 350 Climbing San Juan Center
Mon 10:38:18 AM 18.1333 -64.8333 301° West 420 483 43,000  Level San Juan Center
Mon 10:39:18 AM 18.1833 -64.9333 298° West 420 483 43,000  Level San Juan Center
Mon 10:40:18 AM 18.2333 -65.0333 298° West 430 495 43,000  Level San Juan Center
Mon 10:41:18 AM 18.2833 -65.1667 292° West 440 506 43,000  Level San Juan Center
Mon 10:42:18 AM 18.3500 -65.2833 301° West 430 495 43,000  Level San Juan Center
Mon 10:43:19 AM 18.4000 -65.3833 298° West 420 483 43,000  Level San Juan Center
Mon 10:44:19 AM 18.4500 -65.4833 298° West 400 460 43,000  Level San Juan Center
Mon 10:45:19 AM 18.5000 -65.6000 294° West 420 483 43,000  Level San Juan Center
Mon 10:46:19 AM 18.5500 -65.7167 294° West 420 483 43,000  Level San Juan Center
Mon 10:47:19 AM 18.6000 -65.8167 298° West 420 483 43,000  Level San Juan Center
Mon 10:48:19 AM 18.6667 -65.9333 301° West 430 495 43,000  Level San Juan Center
Mon 10:49:19 AM 18.7167 -66.0333 298° West 430 495 43,000  Level San Juan Center
Mon 10:50:19 AM 18.7667 -66.1500 294° West 430 495 43,000  Level San Juan Center
Mon 10:51:20 AM 18.8167 -66.2667 294° West 430 495 43,000  Level San Juan Center
Mon 10:52:20 AM 18.8833 -66.3833 301° West 430 495 43,000  Level San Juan Center
Mon 10:53:20 AM 18.9333 -66.5000 294° West 430 495 43,000  Level San Juan Center
Mon 10:54:20 AM 18.9833 -66.6000 298° West 430 495 43,000  Level San Juan Center
Mon 10:55:20 AM 19.0333 -66.7167 294° West 430 495 43,000  Level San Juan Center
Mon 10:56:20 AM 19.0833 -66.8333 294° West 430 495 43,000  Level San Juan Center
Mon 10:57:20 AM 19.1500 -66.9500 301° West 430 495 43,000  Level San Juan Center
Mon 10:58:20 AM 19.1833 -67.0500 289° West 420 483 43,000  Level San Juan Center
Mon 10:59:21 AM 19.2333 -67.1667 294° West 420 483 43,000  Level San Juan Center
Mon 11:00:21 AM 19.2833 -67.2833 294° West 430 495 43,000  Level San Juan Center
Mon 11:01:21 AM 19.3167 -67.4000 287° West 430 495 43,000  Level San Juan Center
Mon 11:02:21 AM 19.3667 -67.5167 294° West 430 495 43,000  Level San Juan Center
Mon 11:03:21 AM 19.4000 -67.6333 287° West 420 483 43,000  Level San Juan Center
Mon 11:04:21 AM 19.4500 -67.7500 294° West 430 495 43,000  Level San Juan Center
Mon 11:05:21 AM 19.4833 -67.8833 285° West 430 495 43,000  Level San Juan Center
Mon 11:06:21 AM 19.5333 -68.0000 294° West 430 495 43,000  Level San Juan Center
Mon 11:07:22 AM 19.5667 -68.1167 287° West 420 483 43,000  Level San Juan Center
Mon 11:09:49 AM 19.6678 -68.4275 289° West 433 498 43,000 -29 Level Miami Center
Mon 11:10:49 AM 19.7033 -68.5483 287° West 427 491 42,900 -50 Descending Miami Center
Mon 11:11:49 AM 19.7447 -68.6644 291° West 427 491 42,900  Level Miami Center
Mon 11:12:49 AM 19.7842 -68.7831 289° West 427 491 42,900 50 Level Miami Center
Mon 11:13:49 AM 19.8236 -68.9017 289° West 432 497 43,000 50 Climbing Miami Center
Mon 11:14:49 AM 19.8608 -69.0206 288° West 432 497 43,000  Level Miami Center
Mon 11:15:49 AM 19.9019 -69.1392 290° West 432 497 43,000 100 Level Miami Center
Mon 11:16:49 AM 19.9392 -69.2583 288° West 437 503 43,200 300 Climbing Miami Center
Mon 11:17:49 AM 19.9833 -69.3569 295° West 437 503 43,600 450 Climbing Miami Center
Mon 11:18:49 AM 20.0467 -69.4617 303° West 426 490 44,100 500 Climbing Miami Center
Mon 11:19:49 AM 20.1058 -69.5686 301° West 419 482 44,600 500 Climbing Miami Center
Mon 11:20:49 AM 20.1669 -69.6736 302° West 424 488 45,100 500 Climbing Miami Center
Mon 11:21:49 AM 20.2261 -69.7808 300° West 424 488 45,600 500 Climbing Miami Center
Mon 11:22:49 AM 20.2872 -69.8881 301° West 424 488 46,100 500 Climbing Miami Center
Mon 11:23:49 AM 20.3461 -69.9956 300° West 424 488 46,600 450 Climbing Miami Center
Mon 11:24:49 AM 20.4092 -70.1028 302° West 424 488 47,000 200 Climbing Miami Center
Mon 11:25:49 AM 20.4658 -70.2106 299° West 424 488 47,000  Level Miami Center
Mon 11:26:49 AM 20.5289 -70.3203 302° West 429 494 47,000  Level Miami Center
Mon 11:27:49 AM 20.5897 -70.4303 301° West 429 494 47,000  Level Miami Center
Mon 11:28:49 AM 20.6525 -70.5403 301° West 429 494 47,000  Level Miami Center
Mon 11:29:49 AM 20.7133 -70.6503 301° West 429 494 47,000  Level Miami Center
Mon 11:30:49 AM 20.7761 -70.7628 301° West 429 494 47,000  Level Miami Center
Mon 11:31:49 AM 20.8367 -70.8753 300° West 429 494 47,000  Level Miami Center
Mon 11:32:49 AM 20.8972 -70.9836 301° West 429 494 47,000  Level Miami Center
Mon 11:33:49 AM 20.9578 -71.0964 300° West 429 494 47,000  Level Miami Center
Mon 11:34:49 AM 21.0183 -71.2094 300° West 429 494 47,000  Level Miami Center
Mon 11:35:49 AM 21.0808 -71.3222 301° West 429 494 47,000  Level Miami Center
Mon 11:36:49 AM 21.1433 -71.4397 300° West 434 499 47,000  Level Miami Center
Mon 11:37:49 AM 21.2056 -71.5528 301° West 434 499 47,000  Level Miami Center
Mon 11:38:49 AM 21.2744 -71.6769 301° West 439 505 47,000  Level Miami Center
Mon 11:39:49 AM 21.3389 -71.7925 301° West 439 505 47,000  Level Miami Center
Mon 11:40:49 AM 21.3989 -71.9083 299° West 445 512 47,000  Level Miami Center
Mon 11:41:49 AM 21.4608 -72.0197 301° West 451 519 47,000  Level Miami Center
Mon 11:42:49 AM 21.5208 -72.1358 299° West 441 507 47,000  Level Miami Center
Mon 11:43:49 AM 21.5783 -72.2408 301° West 429 494 47,000  Level Miami Center
Mon 11:44:49 AM 21.6358 -72.3458 301° West 416 479 47,000  Level Miami Center
Mon 11:45:49 AM 21.6931 -72.4511 300° West 411 473 47,000  Level Miami Center
Mon 11:46:49 AM 21.7525 -72.5608 300° West 418 481 47,000  Level Miami Center
Mon 11:47:49 AM 21.8078 -72.6731 298° West 418 481 47,000  Level Miami Center
Mon 11:48:49 AM 21.8694 -72.7853 301° West 425 489 47,000  Level Miami Center
Mon 11:49:49 AM 21.9308 -72.8997 300° West 431 496 47,000  Level Miami Center
Mon 11:50:49 AM 21.9881 -73.0144 298° West 436 502 47,000  Level Miami Center
Mon 11:51:49 AM 22.0472 -73.1314 299° West 431 496 47,000  Level Miami Center
Mon 11:52:49 AM 22.0919 -73.2556 291° West 436 502 47,000  Level Miami Center
Mon 11:53:49 AM 22.1367 -73.3797 291° West 442 509 47,000  Level Miami Center
Mon 11:54:49 AM 22.1811 -73.5019 291° West 442 509 47,000  Level Miami Center
Mon 11:55:49 AM 22.2278 -73.6264 292° West 447 514 47,000  Level Miami Center
Mon 11:56:49 AM 22.2658 -73.7511 288° West 441 507 47,000  Level Miami Center
Mon 11:57:49 AM 22.3078 -73.8578 293° West 441 507 47,000  Level Miami Center
Mon 11:58:49 AM 22.3561 -73.9847 292° West 447 514 47,000  Level Miami Center
Mon 11:59:49 AM 22.4022 -74.1117 291° West 447 514 47,000  Level Miami Center
Mon 12:00:49 PM 22.4483 -74.2386 291° West 453 521 47,000  Level Miami Center
Mon 12:01:49 PM 22.4944 -74.3636 292° West 453 521 47,000  Level Miami Center
Mon 12:02:49 PM 22.5403 -74.4819 293° West 441 507 47,000  Level Miami Center
Mon 12:03:49 PM 22.5817 -74.6006 291° West 430 495 47,000  Level Miami Center
Mon 12:04:49 PM 22.6253 -74.7256 291° West 430 495 47,000  Level Miami Center
Mon 12:05:49 PM 22.6686 -74.8442 292° West 430 495 47,000  Level Miami Center
Mon 12:06:49 PM 22.7100 -74.9653 290° West 430 495 47,000  Level Miami Center
Mon 12:07:49 PM 22.7511 -75.0886 290° West 430 495 47,000  Level Miami Center
Mon 12:08:49 PM 22.7922 -75.2117 290° West 430 495 47,000  Level Miami Center
Mon 12:09:49 PM 22.8331 -75.3308 290° West 425 489 47,000  Level Miami Center
Mon 12:10:49 PM 22.8761 -75.4542 291° West 431 496 47,000  Level Miami Center
Mon 12:11:49 PM 22.9147 -75.5733 289° West 431 496 47,000 -67 Level Miami Center
Mon 12:13:00 PM 22.9924 -75.6936 305° West  Level FlightAware Approximate
Mon 12:13:49 PM 23.0147 -75.8047 305° West 426 490 46,800  Level Miami Center
Mon 12:14:49 PM 23.0761 -75.9150 301° West 426 490 46,200 -550 Descending Miami Center
Mon 12:15:49 PM 23.1397 -76.0342 300° West 420 483 45,700 -500 Descending Miami Center
Mon 12:16:49 PM 23.1944 -76.1356 300° West 407 468 45,200 -350 Descending Miami Center
Mon 12:17:49 PM 23.2556 -76.2414 302° West 407 468 45,000 -100 Descending Miami Center
Mon 12:18:49 PM 23.3122 -76.3500 300° West 401 461 45,000  Level Miami Center
Mon 12:19:49 PM 23.3711 -76.4561 301° West 401 461 45,000  Level Miami Center
Mon 12:20:49 PM 23.4300 -76.5622 301° West 401 461 45,000  Level Miami Center
Mon 12:21:49 PM 23.4867 -76.6708 300° West 406 467 45,000  Level Miami Center
Mon 12:22:49 PM 23.5472 -76.7794 301° West 412 474 45,000  Level Miami Center
Mon 12:23:49 PM 23.6058 -76.8883 300° West 417 480 45,000  Level Miami Center
Mon 12:24:49 PM 23.6622 -76.9972 299° West 417 480 45,000  Level Miami Center
Mon 12:25:49 PM 23.7228 -77.1086 301° West 417 480 45,000  Level Miami Center
Mon 12:26:49 PM 23.7789 -77.2222 298° West 410 472 45,000  Level Miami Center
Mon 12:27:49 PM 23.8392 -77.3292 302° West 415 478 45,000  Level Miami Center
Mon 12:28:49 PM 23.8953 -77.4406 299° West 415 478 45,000  Level Miami Center
Mon 12:29:49 PM 23.9553 -77.5525 300° West 415 478 45,000  Level Miami Center
Mon 12:30:49 PM 24.0133 -77.6664 299° West 420 483 45,000  Level Miami Center
Mon 12:31:49 PM 24.0650 -77.7625 301° West 420 483 45,000  Level Miami Center
Mon 12:32:49 PM 24.1250 -77.8744 300° West 420 483 45,000  Level Miami Center
Mon 12:33:49 PM 24.1847 -77.9864 300° West 426 490 45,000  Level Miami Center
Mon 12:34:49 PM 24.2422 -78.1008 299° West 426 490 45,000  Level Miami Center
Mon 12:35:49 PM 24.3019 -78.2133 300° West 426 490 45,000  Level Miami Center
Mon 12:36:49 PM 24.3614 -78.3256 300° West 426 490 45,000  Level Miami Center
Mon 12:37:49 PM 24.4231 -78.4428 300° West 426 490 45,000  Level Miami Center
Mon 12:38:49 PM 24.4803 -78.5531 300° West 426 490 45,000  Level Miami Center
Mon 12:39:49 PM 24.5394 -78.6681 300° West 426 490 45,000  Level Miami Center
Mon 12:40:49 PM 24.5986 -78.7833 299° West 426 490 45,000  Level Miami Center
Mon 12:41:49 PM 24.6597 -78.8986 300° West 426 490 45,000  Level Miami Center
Mon 12:42:49 PM 24.7189 -79.0092 301° West 426 490 45,000  Level Miami Center
Mon 12:43:49 PM 24.7778 -79.1247 299° West 426 490 45,000  Level Miami Center
Mon 12:44:49 PM 24.8344 -79.2381 299° West 426 490 45,000  Level Miami Center
Mon 12:45:49 PM 24.8933 -79.3514 300° West 426 490 45,000  Level Miami Center
Mon 12:46:49 PM 24.9497 -79.4669 298° West 426 490 45,000  Level Miami Center
Mon 12:47:49 PM 25.0103 -79.5831 300° West 426 490 45,000  Level Miami Center
Mon 12:48:49 PM 25.0689 -79.6967 300° West 426 490 45,000  Level Miami Center
Mon 12:49:49 PM 25.1250 -79.8128 298° West 426 490 45,000 200 Level Miami Center
Mon 12:50:49 PM 25.1833 -79.9267 300° West 426 490 45,400 450 Climbing Miami Center
Mon 12:51:49 PM 25.2394 -80.0428 298° West 426 490 45,900 500 Climbing Miami Center
Mon 12:52:49 PM 25.2975 -80.1569 299° West 426 490 46,400 500 Climbing Miami Center
Mon 12:53:49 PM 25.3533 -80.2711 298° West 426 490 46,900 300 Climbing Miami Center
Mon 12:54:49 PM 25.4092 -80.3853 298° West 426 490 47,000 50 Climbing Miami Center
Mon 12:55:49 PM 25.4689 -80.5022 300° West 432 497 47,000  Level Miami Center
Mon 12:56:49 PM 25.5283 -80.6306 297° West 432 497 47,000  Level Miami Center
Mon 12:57:49 PM 25.5900 -80.7500 300° West 432 497 47,000  Level Miami Center
Mon 12:58:49 PM 25.6475 -80.8625 300° West 439 505 47,000  Level Miami Center
Mon 12:59:49 PM 25.7031 -80.9725 299° West 425 489 47,000  Level Miami Center
Mon 01:00:49 PM 25.7603 -81.0853 299° West 425 489 47,000  Level Miami Center
Mon 01:01:49 PM 25.8133 -81.2000 297° West 425 489 47,000  Level Miami Center
Mon 01:02:49 PM 25.8683 -81.3131 298° West 420 483 47,000  Level Miami Center
Mon 01:03:49 PM 25.9256 -81.4258 299° West 420 483 47,000  Level Miami Center
Mon 01:04:49 PM 25.9806 -81.5342 299° West 420 483 47,000  Level Miami Center
Mon 01:05:49 PM 26.0333 -81.6472 297° West 420 483 47,000  Level Miami Center
Mon 01:06:49 PM 26.0881 -81.7606 298° West 420 483 47,000  Level Miami Center
Mon 01:07:49 PM 26.1406 -81.8714 298° West 420 483 47,000  Level Miami Center
Mon 01:08:49 PM 26.1950 -81.9869 298° West 420 483 47,000  Level Miami Center
Mon 01:09:49 PM 26.2433 -82.0978 296° West 409 471 47,000  Level Miami Center
Mon 01:10:49 PM 26.2997 -82.2139 298° West 415 478 47,000  Level Miami Center
Mon 01:11:49 PM 26.3519 -82.3250 298° West 415 478 47,000  Level Miami Center
Mon 01:12:49 PM 26.4081 -82.4389 299° West 415 478 47,000  Level Miami Center
Mon 01:13:49 PM 26.4619 -82.5575 297° West 421 484 47,000  Level Miami Center
Mon 01:14:49 PM 26.5158 -82.6714 298° West 421 484 47,000  Level Miami Center
Mon 01:15:49 PM 26.5697 -82.7856 298° West 421 484 47,000  Level Miami Center
Mon 01:16:49 PM 26.6233 -82.8997 298° West 421 484 47,000  Level Miami Center
Mon 01:17:49 PM 26.6811 -83.0164 299° West 428 493 47,000  Level Miami Center
Mon 01:18:49 PM 26.7325 -83.1328 296° West 428 493 47,000  Level Miami Center
Mon 01:19:49 PM 26.7881 -83.2475 298° West 423 487 47,000  Level Miami Center
Mon 01:20:49 PM 26.8411 -83.3644 297° West 423 487 47,000  Level Miami Center
Mon 01:21:49 PM 26.8964 -83.4814 298° West 423 487 47,000  Level Miami Center
Mon 01:22:49 PM 26.9494 -83.5961 297° West 423 487 47,000  Level Miami Center
Mon 01:23:49 PM 27.0025 -83.7133 297° West 423 487 47,000  Level Miami Center
Mon 01:26:04 PM 27.1192 -83.9669 297° West 436 502 47,000 -31 Level Jacksonville Center
Mon 01:27:04 PM 27.1744 -84.0842 298° West 429 494 46,900  Descending Jacksonville Center
Mon 01:28:04 PM 27.2275 -84.2014 297° West 429 494 47,000 50 Climbing Jacksonville Center
Mon 01:29:04 PM 27.2783 -84.3164 296° West 429 494 47,000  Level Jacksonville Center
Mon 01:30:04 PM 27.3333 -84.4269 299° West 418 481 47,000  Level Jacksonville Center
Mon 01:31:04 PM 27.3822 -84.5419 296° West 411 473 47,000  Level Jacksonville Center
Mon 01:32:04 PM 27.4369 -84.6575 298° West 411 473 47,000  Level Jacksonville Center
Mon 01:33:04 PM 27.4853 -84.7728 295° West 410 472 47,000  Level Jacksonville Center
Mon 01:34:04 PM 27.5125 -84.8997 284° West 410 472 47,000  Level Jacksonville Center
Mon 01:35:04 PM 27.5461 -85.0289 286° West 418 481 47,000  Level Jacksonville Center
Mon 01:36:04 PM 27.5603 -85.1697 277° West 418 481 47,000  Level Jacksonville Center
Mon 01:37:04 PM 27.5831 -85.2967 281° West 423 487 47,000  Level Jacksonville Center
Mon 01:38:04 PM 27.6139 -85.4283 285° West 429 494 47,000  Level Jacksonville Center
Mon 01:39:04 PM 27.6511 -85.5536 289° West 429 494 47,000  Level Jacksonville Center
Mon 01:40:04 PM 27.6919 -85.6858 289° West 436 502 47,000  Level Jacksonville Center
Mon 01:41:04 PM 27.7308 -85.8133 289° West 436 502 47,000  Level Jacksonville Center
Mon 01:42:04 PM 27.7697 -85.9436 289° West 436 502 47,000  Level Jacksonville Center
Mon 01:43:04 PM 27.8081 -86.0736 288° West 436 502 47,000  Level Jacksonville Center
Mon 01:44:04 PM 27.8464 -86.2086 288° West 446 513 47,000  Level Jacksonville Center
Mon 01:45:04 PM 27.8828 -86.3319 288° West 446 513 47,000  Level Jacksonville Center
Mon 01:46:04 PM 27.9211 -86.4622 288° West 440 506 47,000  Level Jacksonville Center
Mon 01:47:04 PM 27.9611 -86.5975 289° West 446 513 47,000  Level Jacksonville Center
Mon 01:48:04 PM 27.9989 -86.7306 288° West 440 506 47,000  Level Jacksonville Center
Mon 01:49:04 PM 28.0389 -86.8589 289° West 441 507 47,000  Level Jacksonville Center
Mon 01:50:04 PM 28.0783 -86.9922 289° West 441 507 47,000  Level Jacksonville Center
Mon 01:51:04 PM 28.1158 -87.1231 288° West 446 513 47,000  Level Jacksonville Center
Mon 01:51:48 PM 28.1403 -87.1989 290° West 437 503 47,000  Level Houston Center
Mon 01:52:50 PM 28.1783 -87.3311 288° West 441 507 47,000  Level Houston Center
Mon 01:53:52 PM 28.2169 -87.4631 288° West 442 509 47,000  Level Houston Center
Mon 01:54:53 PM 28.2556 -87.5956 288° West 441 507 47,000  Level Houston Center
Mon 01:55:55 PM 28.3025 -87.7533 289° West 440 506 47,000  Level Houston Center
Mon 01:56:57 PM 28.3411 -87.8864 288° West 443 510 47,000  Level Houston Center
Mon 01:57:59 PM 28.3783 -88.0161 288° West 437 503 47,000  Level Houston Center
Mon 01:59:01 PM 28.4319 -88.1567 293° West 441 507 47,000  Level Houston Center
Mon 02:00:02 PM 28.4756 -88.2867 291° West 441 507 47,000  Level Houston Center
Mon 02:01:04 PM 28.5017 -88.4233 282° West 443 510 47,000  Level Houston Center
Mon 02:02:06 PM 28.5283 -88.5597 283° West 441 507 47,000  Level Houston Center
Mon 02:03:08 PM 28.5556 -88.6958 283° West 442 509 47,000  Level Houston Center
Mon 02:04:10 PM 28.5819 -88.8311 283° West 439 505 47,000  Level Houston Center
Mon 02:05:12 PM 28.6086 -88.9658 283° West 439 505 47,000  Level Houston Center
Mon 02:06:14 PM 28.6397 -89.1278 282° West 436 502 47,000  Level Houston Center
Mon 02:07:16 PM 28.6664 -89.2625 283° West 436 502 47,000  Level Houston Center
Mon 02:08:18 PM 28.6914 -89.3975 282° West 434 499 47,000  Level Houston Center
Mon 02:09:19 PM 28.7169 -89.5314 282° West 433 498 47,000  Level Houston Center
Mon 02:10:21 PM 28.7433 -89.6678 282° West 437 503 47,000  Level Houston Center
Mon 02:11:23 PM 28.7683 -89.8031 282° West 439 505 47,000  Level Houston Center
Mon 02:12:25 PM 28.7992 -89.9631 282° West 434 499 47,000  Level Houston Center
Mon 02:13:27 PM 28.8239 -90.0986 282° West 434 499 47,000  Level Houston Center
Mon 02:14:29 PM 28.8489 -90.2333 282° West 434 499 47,000  Level Houston Center
Mon 02:15:31 PM 28.8742 -90.3678 282° West 434 499 47,000  Level Houston Center
Mon 02:16:33 PM 28.9000 -90.5047 282° West 438 504 47,000  Level Houston Center
Mon 02:17:35 PM 28.9242 -90.6394 282° West 436 502 47,000  Level Houston Center
Mon 02:18:37 PM 28.9489 -90.7750 282° West 436 502 47,000  Level Houston Center
Mon 02:19:39 PM 28.9772 -90.9372 281° West 433 498 47,000  Level Houston Center
Mon 02:20:41 PM 29.0022 -91.0719 282° West 434 499 47,000  Level Houston Center
Mon 02:21:43 PM 29.0253 -91.2056 281° West 430 495 47,000  Level Houston Center
Mon 02:22:45 PM 29.0494 -91.3386 282° West 428 493 47,000  Level Houston Center
Mon 02:23:47 PM 29.0725 -91.4728 281° West 429 494 47,000  Level Houston Center
Mon 02:24:49 PM 29.0961 -91.6064 281° West 429 494 47,000  Level Houston Center
Mon 02:25:51 PM 29.1228 -91.7603 281° West 429 494 47,000  Level Houston Center
Mon 02:26:53 PM 29.1456 -91.8928 281° West 426 490 47,000  Level Houston Center
Mon 02:27:55 PM 29.1683 -92.0267 281° West 428 493 47,000  Level Houston Center
Mon 02:28:57 PM 29.1908 -92.1603 281° West 428 493 47,000  Level Houston Center
Mon 02:29:59 PM 29.2131 -92.2914 281° West 422 486 47,000  Level Houston Center
Mon 02:31:01 PM 29.2397 -92.4492 281° West 421 484 47,000 -387 Level Houston Center
Mon 02:32:03 PM 29.2461 -92.5842 273° West 425 489 46,200 -1,597 Descending Houston Center
Mon 02:33:05 PM 29.2475 -92.7217 271° West 430 495 43,700 -2,419 Descending Houston Center
Mon 02:34:07 PM 29.2494 -92.8589 271° West 432 497 41,200 -2,419 Descending Houston Center
Mon 02:35:09 PM 29.2511 -92.9975 271° West 436 502 38,700 -2,419 Descending Houston Center
Mon 02:36:11 PM 29.2542 -93.1344 271° West 431 496 36,200 -2,468 Descending Houston Center
Mon 02:37:13 PM 29.2561 -93.2781 271° West 448 516 33,600 -2,855 Descending Houston Center
Mon 02:38:15 PM 29.2583 -93.4553 271° West 461 531 30,300 -2,855 Descending Houston Center
Mon 02:39:17 PM 29.2603 -93.6000 271° West 458 527 27,700 -2,516 Descending Houston Center
Mon 02:40:19 PM 29.2614 -93.7403 271° West 446 513 25,100 -2,448 Descending Houston Center
Mon 02:41:22 PM 29.2619 -93.8806 270° West 414 476 22,600 -2,208 Descending Houston Center
Mon 02:42:24 PM 29.2642 -93.9994 271° West 384 442 20,500 -2,129 Descending Houston Center
Mon 02:43:26 PM 29.2667 -94.1211 271° West 381 438 18,200 -2,303 Descending Houston Center
Mon 02:44:03 PM 29.2644 -94.2100 268° West 393 452 16,700 -2,301 Descending Houston Center
Mon 02:44:39 PM 29.2653 -94.2817 271° West 374 430 15,400 -1,793 Descending Houston Center
Mon 02:45:30 PM 29.2661 -94.3564 271° West 361 415 14,100 -1,929 Descending Houston Center
Mon 02:45:35 PM 29.2647 -94.3825 267° West 341 392 13,600 -1,935 Descending Houston Center
Mon 02:46:32 PM 29.2700 -94.4661 274° West 350 403 12,100 -1,574 Descending Houston Center
Mon 02:46:36 PM 29.2736 -94.4939 278° West 352 405 12,000 -387 Descending Houston Center
Mon 02:48:36 PM 29.3669 -94.6883 299° West 355 409 11,300 -390 Descending Houston Center
Mon 02:48:39 PM 29.3717 -94.6997 295° West 355 409 11,200 -290 Descending Houston Center
Mon 02:49:38 PM 29.4156 -94.7867 300° West 355 409 11,000 -179 Descending Houston Center
Mon 02:49:46 PM 29.4242 -94.8083 295° West 347 399 11,000 -194 Level Houston Center
Mon 02:50:40 PM 29.4578 -94.8722 301° West 310 357 10,800 -436 Descending Houston Center
Mon 02:50:41 PM 29.4631 -94.8850 295° West 295 339 10,600 -1,452 Descending Houston Center
Mon 02:51:42 PM 29.4986 -94.9539 301° West 297 342 9,300 -1,268 Descending Houston Center
Mon 02:52:44 PM 29.5414 -95.0458 298° West 262 302 8,000 -938 Descending Houston Center
Mon 02:53:50 PM 29.5778 -95.1206 299° West 240 276 7,300 -938 Descending Houston Center
Mon 02:54:52 PM 29.6014 -95.1947 290° West 242 278 6,000 -650 Descending Houston Center
Mon 02:55:50 PM 29.6119 -95.2656 280° West 238 274 6,000  Level Houston Center
Mon 02:55:53 PM 29.6122 -95.2656 360° North 234 269 6,000 -290 Level Houston Center
Mon 02:56:52 PM 29.6217 -95.3394 278° West 234 269 5,700 -492 Descending Houston Center
Mon 02:56:54 PM 29.6239 -95.3458 292° West 235 270 5,500 -2,069 Descending Houston Center
Mon 02:57:50 PM 29.6606 -95.4039 306° West 237 273 3,700 -1,800 Descending Houston Center
Mon 02:57:54 PM 29.6603 -95.4017 98° East 239 275 3,700 -1,364 Level Houston Center
Mon 02:58:56 PM 29.7122 -95.4433 325° Northwest 242 278 2,200 -1,524 Descending Houston Center
Mon 02:58:57 PM 29.7164 -95.4406 30° Northeast 237 273 2,100 -197 Descending Houston Center
Mon 02:59:57 PM 29.7197 -95.3969 85° East 190 219 2,000 -98 Descending Houston Center
Mon 03:00:59 PM 29.7017 -95.3561 117° Southeast 161 185 1,900 -508 Descending Houston Center
Mon 03:01:55 PM 29.6758 -95.3178 128° Southeast 139 160 1,000 -774 Descending Houston Center
Mon 03:02:01 PM 29.6797 -95.3203 331° Northwest 147 169 1,100 -689 Climbing Houston Center
Mon 03:02:56 PM 29.6544 -95.2917 135° Southeast 111 128 300 -871 Descending Houston Center
Mon 03:03:03 PM 29.6522 -95.2869 118° Southeast 130 150 200 -857 Descending Houston Center

Login

Don't have an account? Register now (free) for customized features, flight alerts, and more!